Terminal Aerodrome Forecast
Issued by NWS Greer, SC

Home | Current Version | Previous Version | Text Only | Print | Product List | Glossary On
Versions: 1 2 3 4 5 6 7 8 9 10 11 12 13 14 15 16 17 18 19 20 21 22
000
FTUS42 KGSP 221330 AAA
TAFAVL
TAF AMD
KAVL 221330Z 2214/2312 VRB03KT P6SM SCT015
     FM221800 06004KT P6SM VCTS SCT040CB
     FM230000 VRB03KT P6SM SCT250
     FM230400 00000KT 4SM BR SCT008
     FM230500 00000KT 3/4SM BR SCT004=

USA.gov is the U.S. government's official web portal to all federal, state and local government web resources and services.